sensor_id;sensor_type;location;lat;lon;timestamp;P1;durP1;ratioP1;P2;durP2;ratioP2
47335;SDS011;33068;51.990;5.926;2023-02-28T00:00:10;6.00;;;2.63;;
47335;SDS011;33068;51.990;5.926;2023-02-28T00:02:40;7.55;;;2.75;;
47335;SDS011;33068;51.990;5.926;2023-02-28T00:05:09;9.80;;;2.85;;
47335;SDS011;33068;51.990;5.926;2023-02-28T00:07:37;8.07;;;2.72;;
47335;SDS011;33068;51.990;5.926;2023-02-28T00:10:08;3.13;;;2.47;;
47335;SDS011;33068;51.990;5.926;2023-02-28T00:12:37;6.65;;;2.60;;
47335;SDS011;33068;51.990;5.926;2023-02-28T00:15:07;5.40;;;2.65;;
47335;SDS011;33068;51.990;5.926;2023-02-28T00:17:36;4.40;;;2.13;;
47335;SDS011;33068;51.990;5.926;2023-02-28T00:20:04;5.88;;;2.78;;
47335;SDS011;33068;51.990;5.926;2023-02-28T00:22:33;6.13;;;2.70;;
47335;SDS011;33068;51.990;5.926;2023-02-28T00:25:00;6.75;;;2.78;;
47335;SDS011;33068;51.990;5.926;2023-02-28T00:27:28;4.40;;;2.65;;
47335;SDS011;33068;51.990;5.926;2023-02-28T00:29:55;4.57;;;2.70;;
47335;SDS011;33068;51.990;5.926;2023-02-28T00:32:24;6.70;;;2.47;;
47335;SDS011;33068;51.990;5.926;2023-02-28T00:34:52;7.43;;;2.38;;
47335;SDS011;33068;51.990;5.926;2023-02-28T00:37:19;4.57;;;2.40;;
47335;SDS011;33068;51.990;5.926;2023-02-28T00:39:46;4.45;;;2.50;;
47335;SDS011;33068;51.990;5.926;2023-02-28T00:42:14;5.57;;;2.65;;
47335;SDS011;33068;51.990;5.926;2023-02-28T00:44:42;5.85;;;2.97;;
47335;SDS011;33068;51.990;5.926;2023-02-28T00:47:10;3.70;;;2.25;;
47335;SDS011;33068;51.990;5.926;2023-02-28T00:49:39;5.95;;;2.45;;
47335;SDS011;33068;51.990;5.926;2023-02-28T00:52:08;5.78;;;2.70;;
47335;SDS011;33068;51.990;5.926;2023-02-28T00:54:35;8.52;;;2.67;;
47335;SDS011;33068;51.990;5.926;2023-02-28T00:57:02;7.50;;;3.08;;
47335;SDS011;33068;51.990;5.926;2023-02-28T00:59:30;2.42;;;2.20;;
47335;SDS011;33068;51.990;5.926;2023-02-28T01:01:58;8.65;;;2.85;;
47335;SDS011;33068;51.990;5.926;2023-02-28T01:04:25;6.03;;;2.70;;
47335;SDS011;33068;51.990;5.926;2023-02-28T01:06:53;6.72;;;2.50;;
47335;SDS011;33068;51.990;5.926;2023-02-28T01:09:20;9.25;;;3.20;;
47335;SDS011;33068;51.990;5.926;2023-02-28T01:11:47;7.00;;;3.05;;
47335;SDS011;33068;51.990;5.926;2023-02-28T01:14:15;5.28;;;2.40;;
47335;SDS011;33068;51.990;5.926;2023-02-28T01:16:44;11.23;;;2.83;;
47335;SDS011;33068;51.990;5.926;2023-02-28T01:19:11;6.63;;;2.65;;
47335;SDS011;33068;51.990;5.926;2023-02-28T01:21:39;6.63;;;3.28;;
47335;SDS011;33068;51.990;5.926;2023-02-28T01:24:08;5.43;;;2.45;;
47335;SDS011;33068;51.990;5.926;2023-02-28T01:26:35;8.43;;;3.03;;
47335;SDS011;33068;51.990;5.926;2023-02-28T01:29:05;5.15;;;2.55;;
47335;SDS011;33068;51.990;5.926;2023-02-28T01:31:32;4.53;;;2.75;;
47335;SDS011;33068;51.990;5.926;2023-02-28T01:33:59;6.53;;;2.55;;
47335;SDS011;33068;51.990;5.926;2023-02-28T01:36:27;4.50;;;2.72;;
47335;SDS011;33068;51.990;5.926;2023-02-28T01:38:55;7.35;;;2.60;;
47335;SDS011;33068;51.990;5.926;2023-02-28T01:41:24;5.18;;;3.10;;
47335;SDS011;33068;51.990;5.926;2023-02-28T01:43:54;5.43;;;3.13;;
47335;SDS011;33068;51.990;5.926;2023-02-28T01:46:28;5.75;;;3.05;;
47335;SDS011;33068;51.990;5.926;2023-02-28T01:48:58;10.48;;;3.35;;
47335;SDS011;33068;51.990;5.926;2023-02-28T01:51:31;8.20;;;3.00;;
47335;SDS011;33068;51.990;5.926;2023-02-28T01:54:05;5.93;;;2.88;;
47335;SDS011;33068;51.990;5.926;2023-02-28T01:56:41;7.97;;;2.50;;
47335;SDS011;33068;51.990;5.926;2023-02-28T01:59:12;3.25;;;2.50;;
47335;SDS011;33068;51.990;5.926;2023-02-28T02:01:46;6.53;;;2.67;;
47335;SDS011;33068;51.990;5.926;2023-02-28T02:04:14;4.85;;;3.08;;
47335;SDS011;33068;51.990;5.926;2023-02-28T02:06:42;6.72;;;2.97;;
47335;SDS011;33068;51.990;5.926;2023-02-28T02:09:12;7.30;;;3.13;;
47335;SDS011;33068;51.990;5.926;2023-02-28T02:11:41;7.80;;;3.33;;
47335;SDS011;33068;51.990;5.926;2023-02-28T02:14:30;3.60;;;2.60;;
47335;SDS011;33068;51.990;5.926;2023-02-28T02:17:14;6.60;;;3.53;;
47335;SDS011;33068;51.990;5.926;2023-02-28T02:19:58;8.95;;;3.80;;
47335;SDS011;33068;51.990;5.926;2023-02-28T02:25:58;9.25;;;3.00;;
47335;SDS011;33068;51.990;5.926;2023-02-28T02:28:54;8.13;;;3.28;;
47335;SDS011;33068;51.990;5.926;2023-02-28T02:34:57;8.90;;;2.92;;
47335;SDS011;33068;51.990;5.926;2023-02-28T02:37:33;7.15;;;3.00;;
47335;SDS011;33068;51.990;5.926;2023-02-28T02:40:08;10.52;;;3.20;;
47335;SDS011;33068;51.990;5.926;2023-02-28T02:42:41;6.47;;;2.58;;
47335;SDS011;33068;51.990;5.926;2023-02-28T02:45:15;6.35;;;3.38;;
47335;SDS011;33068;51.990;5.926;2023-02-28T02:47:48;6.50;;;3.08;;
47335;SDS011;33068;51.990;5.926;2023-02-28T02:50:19;6.03;;;3.08;;
47335;SDS011;33068;51.990;5.926;2023-02-28T02:52:52;6.57;;;2.97;;
47335;SDS011;33068;51.990;5.926;2023-02-28T02:55:22;7.63;;;3.10;;
47335;SDS011;33068;51.990;5.926;2023-02-28T02:57:51;5.88;;;3.00;;
47335;SDS011;33068;51.990;5.926;2023-02-28T03:00:22;7.72;;;2.80;;
47335;SDS011;33068;51.990;5.926;2023-02-28T03:02:53;9.45;;;3.53;;
47335;SDS011;33068;51.990;5.926;2023-02-28T03:05:25;5.40;;;3.25;;
47335;SDS011;33068;51.990;5.926;2023-02-28T03:07:54;10.45;;;3.03;;
47335;SDS011;33068;51.990;5.926;2023-02-28T03:10:28;8.68;;;3.03;;
47335;SDS011;33068;51.990;5.926;2023-02-28T03:13:00;6.10;;;2.97;;
47335;SDS011;33068;51.990;5.926;2023-02-28T03:15:37;6.82;;;2.78;;
47335;SDS011;33068;51.990;5.926;2023-02-28T03:18:15;9.52;;;3.63;;
47335;SDS011;33068;51.990;5.926;2023-02-28T03:20:49;6.38;;;2.88;;
47335;SDS011;33068;51.990;5.926;2023-02-28T03:23:29;4.97;;;3.00;;
47335;SDS011;33068;51.990;5.926;2023-02-28T03:26:07;5.35;;;2.80;;
47335;SDS011;33068;51.990;5.926;2023-02-28T03:28:41;4.13;;;3.10;;
47335;SDS011;33068;51.990;5.926;2023-02-28T03:31:15;9.43;;;3.08;;
47335;SDS011;33068;51.990;5.926;2023-02-28T03:33:46;5.95;;;3.20;;
47335;SDS011;33068;51.990;5.926;2023-02-28T03:36:21;6.10;;;3.17;;
47335;SDS011;33068;51.990;5.926;2023-02-28T03:38:53;5.63;;;3.08;;
47335;SDS011;33068;51.990;5.926;2023-02-28T03:41:28;4.95;;;2.85;;
47335;SDS011;33068;51.990;5.926;2023-02-28T03:43:59;4.05;;;2.83;;
47335;SDS011;33068;51.990;5.926;2023-02-28T03:46:36;3.90;;;2.38;;
47335;SDS011;33068;51.990;5.926;2023-02-28T03:49:11;4.35;;;2.72;;
47335;SDS011;33068;51.990;5.926;2023-02-28T03:51:43;6.25;;;2.70;;
47335;SDS011;33068;51.990;5.926;2023-02-28T03:54:14;5.60;;;2.90;;
47335;SDS011;33068;51.990;5.926;2023-02-28T03:56:45;6.65;;;2.85;;
47335;SDS011;33068;51.990;5.926;2023-02-28T03:59:16;6.88;;;2.40;;
47335;SDS011;33068;51.990;5.926;2023-02-28T04:01:48;5.35;;;2.03;;
47335;SDS011;33068;51.990;5.926;2023-02-28T04:04:17;4.57;;;2.28;;
47335;SDS011;33068;51.990;5.926;2023-02-28T04:06:47;5.15;;;2.25;;
47335;SDS011;33068;51.990;5.926;2023-02-28T04:09:16;5.78;;;1.95;;
47335;SDS011;33068;51.990;5.926;2023-02-28T04:11:44;2.28;;;1.70;;
47335;SDS011;33068;51.990;5.926;2023-02-28T04:14:13;2.00;;;1.55;;
47335;SDS011;33068;51.990;5.926;2023-02-28T04:16:40;3.75;;;1.80;;
47335;SDS011;33068;51.990;5.926;2023-02-28T04:19:09;3.20;;;1.55;;
47335;SDS011;33068;51.990;5.926;2023-02-28T04:21:38;2.20;;;1.20;;
47335;SDS011;33068;51.990;5.926;2023-02-28T04:24:08;4.75;;;1.50;;
47335;SDS011;33068;51.990;5.926;2023-02-28T04:26:39;4.63;;;1.80;;
47335;SDS011;33068;51.990;5.926;2023-02-28T04:29:08;3.28;;;1.63;;
47335;SDS011;33068;51.990;5.926;2023-02-28T04:31:36;2.80;;;1.50;;
47335;SDS011;33068;51.990;5.926;2023-02-28T04:34:04;1.90;;;1.45;;
47335;SDS011;33068;51.990;5.926;2023-02-28T04:36:31;3.90;;;1.55;;
47335;SDS011;33068;51.990;5.926;2023-02-28T04:38:58;2.53;;;1.50;;
47335;SDS011;33068;51.990;5.926;2023-02-28T04:41:27;2.65;;;1.50;;
47335;SDS011;33068;51.990;5.926;2023-02-28T04:43:54;3.75;;;1.60;;
47335;SDS011;33068;51.990;5.926;2023-02-28T04:46:22;2.50;;;1.15;;
47335;SDS011;33068;51.990;5.926;2023-02-28T04:48:49;4.13;;;2.10;;
47335;SDS011;33068;51.990;5.926;2023-02-28T04:51:17;2.65;;;1.38;;
47335;SDS011;33068;51.990;5.926;2023-02-28T04:53:45;4.45;;;1.25;;
47335;SDS011;33068;51.990;5.926;2023-02-28T04:56:14;6.40;;;1.80;;
47335;SDS011;33068;51.990;5.926;2023-02-28T04:58:43;6.00;;;1.63;;
47335;SDS011;33068;51.990;5.926;2023-02-28T05:01:21;2.13;;;1.42;;
47335;SDS011;33068;51.990;5.926;2023-02-28T05:03:53;2.97;;;1.40;;
47335;SDS011;33068;51.990;5.926;2023-02-28T05:06:22;7.82;;;1.30;;
47335;SDS011;33068;51.990;5.926;2023-02-28T05:08:50;4.22;;;1.88;;
47335;SDS011;33068;51.990;5.926;2023-02-28T05:11:18;4.32;;;1.77;;
47335;SDS011;33068;51.990;5.926;2023-02-28T05:13:48;2.67;;;1.60;;
47335;SDS011;33068;51.990;5.926;2023-02-28T05:16:15;1.42;;;1.30;;
47335;SDS011;33068;51.990;5.926;2023-02-28T05:18:43;3.03;;;1.30;;
47335;SDS011;33068;51.990;5.926;2023-02-28T05:23:56;3.85;;;1.55;;
47335;SDS011;33068;51.990;5.926;2023-02-28T05:26:25;2.17;;;1.33;;
47335;SDS011;33068;51.990;5.926;2023-02-28T05:28:54;2.22;;;1.33;;
47335;SDS011;33068;51.990;5.926;2023-02-28T05:31:21;2.72;;;1.30;;
47335;SDS011;33068;51.990;5.926;2023-02-28T05:33:48;4.90;;;1.40;;
47335;SDS011;33068;51.990;5.926;2023-02-28T05:36:21;2.30;;;1.05;;
47335;SDS011;33068;51.990;5.926;2023-02-28T05:38:48;2.75;;;1.42;;
47335;SDS011;33068;51.990;5.926;2023-02-28T05:41:16;2.25;;;1.13;;
47335;SDS011;33068;51.990;5.926;2023-02-28T05:43:44;2.25;;;0.98;;
47335;SDS011;33068;51.990;5.926;2023-02-28T05:46:13;4.60;;;1.65;;
47335;SDS011;33068;51.990;5.926;2023-02-28T05:48:41;2.47;;;1.10;;
47335;SDS011;33068;51.990;5.926;2023-02-28T05:51:09;4.30;;;1.40;;
47335;SDS011;33068;51.990;5.926;2023-02-28T05:53:36;2.17;;;1.05;;
47335;SDS011;33068;51.990;5.926;2023-02-28T05:56:03;1.80;;;1.00;;
47335;SDS011;33068;51.990;5.926;2023-02-28T05:58:30;8.77;;;1.33;;
47335;SDS011;33068;51.990;5.926;2023-02-28T06:00:59;3.17;;;1.00;;
47335;SDS011;33068;51.990;5.926;2023-02-28T06:03:28;1.95;;;0.95;;
47335;SDS011;33068;51.990;5.926;2023-02-28T06:05:55;2.17;;;0.98;;
47335;SDS011;33068;51.990;5.926;2023-02-28T06:08:22;3.92;;;1.40;;
47335;SDS011;33068;51.990;5.926;2023-02-28T06:10:49;0.88;;;0.77;;
47335;SDS011;33068;51.990;5.926;2023-02-28T06:13:19;2.00;;;0.90;;
47335;SDS011;33068;51.990;5.926;2023-02-28T06:15:47;3.33;;;0.80;;
47335;SDS011;33068;51.990;5.926;2023-02-28T06:18:14;3.22;;;1.17;;
47335;SDS011;33068;51.990;5.926;2023-02-28T06:20:42;2.78;;;1.23;;
47335;SDS011;33068;51.990;5.926;2023-02-28T06:23:09;1.75;;;1.30;;
47335;SDS011;33068;51.990;5.926;2023-02-28T06:25:36;4.38;;;1.02;;
47335;SDS011;33068;51.990;5.926;2023-02-28T06:28:03;2.25;;;0.90;;
47335;SDS011;33068;51.990;5.926;2023-02-28T06:30:31;2.85;;;1.10;;
47335;SDS011;33068;51.990;5.926;2023-02-28T06:32:59;5.90;;;1.20;;
47335;SDS011;33068;51.990;5.926;2023-02-28T06:35:26;2.20;;;0.75;;
47335;SDS011;33068;51.990;5.926;2023-02-28T06:37:54;3.15;;;1.50;;
47335;SDS011;33068;51.990;5.926;2023-02-28T06:40:21;2.33;;;1.25;;
47335;SDS011;33068;51.990;5.926;2023-02-28T06:42:48;2.55;;;1.00;;
47335;SDS011;33068;51.990;5.926;2023-02-28T06:45:15;3.50;;;1.45;;
47335;SDS011;33068;51.990;5.926;2023-02-28T06:47:42;3.33;;;0.98;;
47335;SDS011;33068;51.990;5.926;2023-02-28T06:50:10;2.15;;;1.10;;
47335;SDS011;33068;51.990;5.926;2023-02-28T06:52:38;6.70;;;1.25;;
47335;SDS011;33068;51.990;5.926;2023-02-28T06:55:07;2.80;;;1.02;;
47335;SDS011;33068;51.990;5.926;2023-02-28T06:57:35;3.95;;;1.00;;
47335;SDS011;33068;51.990;5.926;2023-02-28T07:00:03;2.10;;;1.27;;
47335;SDS011;33068;51.990;5.926;2023-02-28T07:02:32;3.83;;;1.23;;
47335;SDS011;33068;51.990;5.926;2023-02-28T07:04:59;2.75;;;1.00;;
47335;SDS011;33068;51.990;5.926;2023-02-28T07:07:26;3.10;;;1.23;;
47335;SDS011;33068;51.990;5.926;2023-02-28T07:09:54;5.78;;;1.55;;
47335;SDS011;33068;51.990;5.926;2023-02-28T07:12:23;2.45;;;1.20;;
47335;SDS011;33068;51.990;5.926;2023-02-28T07:14:50;2.10;;;1.23;;
47335;SDS011;33068;51.990;5.926;2023-02-28T07:17:17;2.55;;;1.25;;
47335;SDS011;33068;51.990;5.926;2023-02-28T07:19:44;3.42;;;1.55;;
47335;SDS011;33068;51.990;5.926;2023-02-28T07:22:11;2.60;;;1.40;;
47335;SDS011;33068;51.990;5.926;2023-02-28T07:24:38;1.58;;;1.15;;
47335;SDS011;33068;51.990;5.926;2023-02-28T07:27:05;4.68;;;1.55;;
47335;SDS011;33068;51.990;5.926;2023-02-28T07:29:33;3.72;;;1.88;;
47335;SDS011;33068;51.990;5.926;2023-02-28T07:32:01;5.53;;;2.25;;
47335;SDS011;33068;51.990;5.926;2023-02-28T07:34:28;4.10;;;1.90;;
47335;SDS011;33068;51.990;5.926;2023-02-28T07:36:55;4.82;;;1.98;;
47335;SDS011;33068;51.990;5.926;2023-02-28T07:39:22;3.80;;;1.77;;
47335;SDS011;33068;51.990;5.926;2023-02-28T07:41:49;3.88;;;1.63;;
47335;SDS011;33068;51.990;5.926;2023-02-28T07:44:16;4.53;;;1.70;;
47335;SDS011;33068;51.990;5.926;2023-02-28T07:46:44;2.55;;;1.40;;
47335;SDS011;33068;51.990;5.926;2023-02-28T07:49:11;5.10;;;2.10;;
47335;SDS011;33068;51.990;5.926;2023-02-28T07:51:38;3.78;;;1.70;;
47335;SDS011;33068;51.990;5.926;2023-02-28T07:54:05;6.47;;;2.00;;
47335;SDS011;33068;51.990;5.926;2023-02-28T07:56:33;4.13;;;2.10;;
47335;SDS011;33068;51.990;5.926;2023-02-28T07:59:00;3.35;;;1.70;;
47335;SDS011;33068;51.990;5.926;2023-02-28T08:01:27;2.65;;;1.70;;
47335;SDS011;33068;51.990;5.926;2023-02-28T08:03:56;3.42;;;1.52;;
47335;SDS011;33068;51.990;5.926;2023-02-28T08:06:23;6.20;;;1.50;;
47335;SDS011;33068;51.990;5.926;2023-02-28T08:08:51;6.10;;;1.63;;
47335;SDS011;33068;51.990;5.926;2023-02-28T08:11:21;3.88;;;1.48;;
47335;SDS011;33068;51.990;5.926;2023-02-28T08:13:48;2.50;;;1.40;;
47335;SDS011;33068;51.990;5.926;2023-02-28T08:16:15;3.70;;;1.27;;
47335;SDS011;33068;51.990;5.926;2023-02-28T08:18:47;10.65;;;1.75;;
47335;SDS011;33068;51.990;5.926;2023-02-28T08:21:16;3.15;;;1.10;;
47335;SDS011;33068;51.990;5.926;2023-02-28T08:23:45;3.22;;;1.08;;
47335;SDS011;33068;51.990;5.926;2023-02-28T08:26:13;5.15;;;1.27;;
47335;SDS011;33068;51.990;5.926;2023-02-28T08:28:40;1.48;;;1.00;;
47335;SDS011;33068;51.990;5.926;2023-02-28T08:31:07;5.55;;;1.33;;
47335;SDS011;33068;51.990;5.926;2023-02-28T08:33:35;3.63;;;1.30;;
47335;SDS011;33068;51.990;5.926;2023-02-28T08:36:04;3.35;;;1.20;;
47335;SDS011;33068;51.990;5.926;2023-02-28T08:38:33;2.30;;;1.02;;
47335;SDS011;33068;51.990;5.926;2023-02-28T08:41:02;3.22;;;1.05;;
47335;SDS011;33068;51.990;5.926;2023-02-28T08:43:32;1.65;;;1.00;;
47335;SDS011;33068;51.990;5.926;2023-02-28T08:46:00;1.52;;;0.90;;
47335;SDS011;33068;51.990;5.926;2023-02-28T08:48:27;1.08;;;0.90;;
47335;SDS011;33068;51.990;5.926;2023-02-28T08:50:56;3.25;;;1.10;;
47335;SDS011;33068;51.990;5.926;2023-02-28T08:53:24;1.85;;;1.00;;
47335;SDS011;33068;51.990;5.926;2023-02-28T08:55:59;1.35;;;0.80;;
47335;SDS011;33068;51.990;5.926;2023-02-28T08:58:27;2.70;;;1.05;;
47335;SDS011;33068;51.990;5.926;2023-02-28T09:00:55;1.52;;;0.95;;
47335;SDS011;33068;51.990;5.926;2023-02-28T09:03:22;3.92;;;1.13;;
47335;SDS011;33068;51.990;5.926;2023-02-28T09:05:53;2.28;;;1.38;;
47335;SDS011;33068;51.990;5.926;2023-02-28T09:08:22;1.27;;;0.93;;
47335;SDS011;33068;51.990;5.926;2023-02-28T09:10:49;1.52;;;1.05;;
47335;SDS011;33068;51.990;5.926;2023-02-28T09:13:18;4.65;;;1.63;;
47335;SDS011;33068;51.990;5.926;2023-02-28T09:15:45;1.73;;;0.82;;
47335;SDS011;33068;51.990;5.926;2023-02-28T09:18:13;1.15;;;0.75;;
47335;SDS011;33068;51.990;5.926;2023-02-28T09:20:41;1.60;;;0.80;;
47335;SDS011;33068;51.990;5.926;2023-02-28T09:23:09;1.83;;;0.73;;
47335;SDS011;33068;51.990;5.926;2023-02-28T09:25:37;1.38;;;0.70;;
47335;SDS011;33068;51.990;5.926;2023-02-28T09:28:04;1.45;;;0.80;;
47335;SDS011;33068;51.990;5.926;2023-02-28T09:30:32;1.90;;;1.02;;
47335;SDS011;33068;51.990;5.926;2023-02-28T09:33:00;2.80;;;0.90;;
47335;SDS011;33068;51.990;5.926;2023-02-28T09:35:27;0.85;;;0.68;;
47335;SDS011;33068;51.990;5.926;2023-02-28T09:37:55;2.47;;;1.00;;
47335;SDS011;33068;51.990;5.926;2023-02-28T09:40:23;1.50;;;0.90;;
47335;SDS011;33068;51.990;5.926;2023-02-28T09:42:53;1.63;;;0.77;;
47335;SDS011;33068;51.990;5.926;2023-02-28T09:45:23;1.63;;;0.90;;
47335;SDS011;33068;51.990;5.926;2023-02-28T09:47:55;1.10;;;0.85;;
47335;SDS011;33068;51.990;5.926;2023-02-28T09:50:29;2.38;;;0.98;;
47335;SDS011;33068;51.990;5.926;2023-02-28T09:53:02;2.30;;;0.80;;
47335;SDS011;33068;51.990;5.926;2023-02-28T09:55:33;1.40;;;0.80;;
47335;SDS011;33068;51.990;5.926;2023-02-28T09:58:05;0.95;;;0.80;;
47335;SDS011;33068;51.990;5.926;2023-02-28T10:00:42;1.85;;;0.75;;
47335;SDS011;33068;51.990;5.926;2023-02-28T10:03:24;1.00;;;0.70;;
47335;SDS011;33068;51.990;5.926;2023-02-28T10:05:56;1.27;;;0.98;;
47335;SDS011;33068;51.990;5.926;2023-02-28T10:08:30;2.35;;;0.88;;
47335;SDS011;33068;51.990;5.926;2023-02-28T10:11:03;4.85;;;0.90;;
47335;SDS011;33068;51.990;5.926;2023-02-28T10:13:34;1.73;;;0.60;;
47335;SDS011;33068;51.990;5.926;2023-02-28T10:16:05;3.38;;;0.90;;
47335;SDS011;33068;51.990;5.926;2023-02-28T10:18:39;2.30;;;0.77;;
47335;SDS011;33068;51.990;5.926;2023-02-28T10:21:17;2.97;;;1.00;;
47335;SDS011;33068;51.990;5.926;2023-02-28T10:23:47;2.63;;;0.80;;
47335;SDS011;33068;51.990;5.926;2023-02-28T10:26:16;1.73;;;0.75;;
47335;SDS011;33068;51.990;5.926;2023-02-28T10:28:44;1.02;;;0.70;;
47335;SDS011;33068;51.990;5.926;2023-02-28T10:31:12;4.07;;;0.80;;
47335;SDS011;33068;51.990;5.926;2023-02-28T10:33:45;1.73;;;0.75;;
47335;SDS011;33068;51.990;5.926;2023-02-28T10:36:14;1.20;;;0.60;;
47335;SDS011;33068;51.990;5.926;2023-02-28T10:38:44;0.90;;;0.60;;
47335;SDS011;33068;51.990;5.926;2023-02-28T10:41:17;2.75;;;0.80;;
47335;SDS011;33068;51.990;5.926;2023-02-28T10:44:08;0.63;;;0.50;;
47335;SDS011;33068;51.990;5.926;2023-02-28T10:46:40;1.60;;;0.70;;
47335;SDS011;33068;51.990;5.926;2023-02-28T10:49:14;1.33;;;0.80;;
47335;SDS011;33068;51.990;5.926;2023-02-28T10:51:44;2.80;;;0.70;;
47335;SDS011;33068;51.990;5.926;2023-02-28T10:54:17;1.10;;;0.95;;
47335;SDS011;33068;51.990;5.926;2023-02-28T10:56:46;1.98;;;0.60;;
47335;SDS011;33068;51.990;5.926;2023-02-28T10:59:33;2.17;;;0.73;;
47335;SDS011;33068;51.990;5.926;2023-02-28T11:02:01;0.82;;;0.70;;
47335;SDS011;33068;51.990;5.926;2023-02-28T11:04:33;2.22;;;0.77;;
47335;SDS011;33068;51.990;5.926;2023-02-28T11:07:05;1.27;;;0.80;;
47335;SDS011;33068;51.990;5.926;2023-02-28T11:09:44;1.60;;;0.90;;
47335;SDS011;33068;51.990;5.926;2023-02-28T11:12:21;0.98;;;0.80;;
47335;SDS011;33068;51.990;5.926;2023-02-28T11:17:19;1.45;;;0.80;;
47335;SDS011;33068;51.990;5.926;2023-02-28T11:19:50;1.08;;;0.80;;
47335;SDS011;33068;51.990;5.926;2023-02-28T11:22:19;2.53;;;1.02;;
47335;SDS011;33068;51.990;5.926;2023-02-28T11:24:50;0.85;;;0.70;;
47335;SDS011;33068;51.990;5.926;2023-02-28T11:27:39;1.48;;;0.70;;
47335;SDS011;33068;51.990;5.926;2023-02-28T11:32:56;3.50;;;0.90;;
47335;SDS011;33068;51.990;5.926;2023-02-28T11:35:26;1.95;;;1.00;;
47335;SDS011;33068;51.990;5.926;2023-02-28T11:37:56;1.25;;;0.68;;
47335;SDS011;33068;51.990;5.926;2023-02-28T11:40:27;1.52;;;0.80;;
47335;SDS011;33068;51.990;5.926;2023-02-28T11:43:01;1.95;;;0.80;;
47335;SDS011;33068;51.990;5.926;2023-02-28T11:45:44;1.00;;;0.70;;
47335;SDS011;33068;51.990;5.926;2023-02-28T11:48:22;1.15;;;0.90;;
47335;SDS011;33068;51.990;5.926;2023-02-28T11:51:00;1.25;;;0.80;;
47335;SDS011;33068;51.990;5.926;2023-02-28T11:53:47;1.38;;;0.70;;
47335;SDS011;33068;51.990;5.926;2023-02-28T11:56:41;1.65;;;0.70;;
47335;SDS011;33068;51.990;5.926;2023-02-28T11:59:24;2.97;;;1.10;;
47335;SDS011;33068;51.990;5.926;2023-02-28T12:02:06;1.27;;;0.60;;
47335;SDS011;33068;51.990;5.926;2023-02-28T12:05:16;1.00;;;0.80;;
47335;SDS011;33068;51.990;5.926;2023-02-28T12:07:59;1.08;;;0.90;;
47335;SDS011;33068;51.990;5.926;2023-02-28T12:10:37;2.53;;;0.88;;
47335;SDS011;33068;51.990;5.926;2023-02-28T12:13:20;1.45;;;0.93;;
47335;SDS011;33068;51.990;5.926;2023-02-28T12:16:09;1.92;;;0.88;;
47335;SDS011;33068;51.990;5.926;2023-02-28T12:18:55;3.38;;;0.70;;
47335;SDS011;33068;51.990;5.926;2023-02-28T12:21:35;2.42;;;1.08;;
47335;SDS011;33068;51.990;5.926;2023-02-28T12:27:00;2.55;;;0.90;;
47335;SDS011;33068;51.990;5.926;2023-02-28T12:29:32;1.15;;;0.93;;
47335;SDS011;33068;51.990;5.926;2023-02-28T12:32:09;2.00;;;1.00;;
47335;SDS011;33068;51.990;5.926;2023-02-28T12:34:41;1.90;;;1.17;;
47335;SDS011;33068;51.990;5.926;2023-02-28T12:37:12;1.80;;;1.10;;
47335;SDS011;33068;51.990;5.926;2023-02-28T12:39:45;1.65;;;1.15;;
47335;SDS011;33068;51.990;5.926;2023-02-28T12:42:19;2.25;;;1.23;;
47335;SDS011;33068;51.990;5.926;2023-02-28T12:44:52;1.75;;;0.90;;
47335;SDS011;33068;51.990;5.926;2023-02-28T12:47:23;1.50;;;1.00;;
47335;SDS011;33068;51.990;5.926;2023-02-28T12:49:51;3.33;;;1.20;;
47335;SDS011;33068;51.990;5.926;2023-02-28T12:52:24;1.60;;;0.90;;
47335;SDS011;33068;51.990;5.926;2023-02-28T12:55:00;2.90;;;1.00;;
47335;SDS011;33068;51.990;5.926;2023-02-28T12:57:34;2.08;;;0.82;;
47335;SDS011;33068;51.990;5.926;2023-02-28T13:00:09;1.35;;;0.80;;
47335;SDS011;33068;51.990;5.926;2023-02-28T13:02:55;1.48;;;0.90;;
47335;SDS011;33068;51.990;5.926;2023-02-28T13:05:46;2.90;;;0.75;;
47335;SDS011;33068;51.990;5.926;2023-02-28T13:08:36;4.10;;;0.90;;
47335;SDS011;33068;51.990;5.926;2023-02-28T13:11:26;2.35;;;1.02;;
47335;SDS011;33068;51.990;5.926;2023-02-28T13:13:59;1.60;;;0.75;;
47335;SDS011;33068;51.990;5.926;2023-02-28T13:16:28;1.67;;;0.88;;
47335;SDS011;33068;51.990;5.926;2023-02-28T13:19:33;1.50;;;0.90;;
47335;SDS011;33068;51.990;5.926;2023-02-28T13:22:03;4.20;;;0.90;;
47335;SDS011;33068;51.990;5.926;2023-02-28T13:24:38;3.85;;;0.90;;
47335;SDS011;33068;51.990;5.926;2023-02-28T13:27:19;2.25;;;0.82;;
47335;SDS011;33068;51.990;5.926;2023-02-28T13:29:51;2.33;;;1.00;;
47335;SDS011;33068;51.990;5.926;2023-02-28T13:38:16;2.65;;;0.95;;
47335;SDS011;33068;51.990;5.926;2023-02-28T13:44:07;3.13;;;1.00;;
47335;SDS011;33068;51.990;5.926;2023-02-28T13:46:36;2.63;;;1.20;;
47335;SDS011;33068;51.990;5.926;2023-02-28T13:49:25;1.50;;;0.82;;
47335;SDS011;33068;51.990;5.926;2023-02-28T13:51:55;1.98;;;0.88;;
47335;SDS011;33068;51.990;5.926;2023-02-28T13:54:40;1.77;;;0.85;;
47335;SDS011;33068;51.990;5.926;2023-02-28T13:57:21;1.77;;;0.93;;
47335;SDS011;33068;51.990;5.926;2023-02-28T14:00:02;5.10;;;1.00;;
47335;SDS011;33068;51.990;5.926;2023-02-28T14:02:46;2.92;;;1.02;;
47335;SDS011;33068;51.990;5.926;2023-02-28T14:05:35;2.53;;;1.10;;
47335;SDS011;33068;51.990;5.926;2023-02-28T14:08:04;1.88;;;1.20;;
47335;SDS011;33068;51.990;5.926;2023-02-28T14:10:40;2.97;;;1.00;;
47335;SDS011;33068;51.990;5.926;2023-02-28T14:13:17;3.05;;;1.08;;
47335;SDS011;33068;51.990;5.926;2023-02-28T14:16:11;2.80;;;1.30;;
47335;SDS011;33068;51.990;5.926;2023-02-28T14:18:40;2.83;;;1.00;;
47335;SDS011;33068;51.990;5.926;2023-02-28T14:21:16;3.28;;;0.90;;
47335;SDS011;33068;51.990;5.926;2023-02-28T14:23:56;3.13;;;1.20;;
47335;SDS011;33068;51.990;5.926;2023-02-28T14:27:00;1.77;;;0.80;;
47335;SDS011;33068;51.990;5.926;2023-02-28T14:29:43;1.75;;;0.80;;
47335;SDS011;33068;51.990;5.926;2023-02-28T14:32:32;3.88;;;1.00;;
47335;SDS011;33068;51.990;5.926;2023-02-28T14:35:03;1.98;;;1.10;;
47335;SDS011;33068;51.990;5.926;2023-02-28T14:37:43;2.50;;;0.90;;
47335;SDS011;33068;51.990;5.926;2023-02-28T14:40:12;2.15;;;1.10;;
47335;SDS011;33068;51.990;5.926;2023-02-28T14:42:46;2.42;;;1.30;;
47335;SDS011;33068;51.990;5.926;2023-02-28T14:45:18;1.20;;;0.68;;
47335;SDS011;33068;51.990;5.926;2023-02-28T14:47:47;1.35;;;0.80;;
47335;SDS011;33068;51.990;5.926;2023-02-28T14:50:18;2.03;;;0.98;;
47335;SDS011;33068;51.990;5.926;2023-02-28T14:52:47;1.25;;;1.00;;
47335;SDS011;33068;51.990;5.926;2023-02-28T14:55:18;1.27;;;0.63;;
47335;SDS011;33068;51.990;5.926;2023-02-28T14:57:53;1.77;;;1.20;;
47335;SDS011;33068;51.990;5.926;2023-02-28T15:00:22;2.80;;;0.90;;
47335;SDS011;33068;51.990;5.926;2023-02-28T15:02:52;1.65;;;0.93;;
47335;SDS011;33068;51.990;5.926;2023-02-28T15:05:25;2.67;;;1.00;;
47335;SDS011;33068;51.990;5.926;2023-02-28T15:08:02;2.63;;;0.77;;
47335;SDS011;33068;51.990;5.926;2023-02-28T15:10:31;1.80;;;1.05;;
47335;SDS011;33068;51.990;5.926;2023-02-28T15:13:00;2.65;;;1.00;;
47335;SDS011;33068;51.990;5.926;2023-02-28T15:15:35;3.13;;;1.55;;
47335;SDS011;33068;51.990;5.926;2023-02-28T15:18:13;7.43;;;2.17;;
47335;SDS011;33068;51.990;5.926;2023-02-28T15:20:48;1.10;;;0.80;;
47335;SDS011;33068;51.990;5.926;2023-02-28T15:23:16;2.17;;;0.82;;
47335;SDS011;33068;51.990;5.926;2023-02-28T15:25:45;2.47;;;1.08;;
47335;SDS011;33068;51.990;5.926;2023-02-28T15:28:14;3.55;;;0.90;;
47335;SDS011;33068;51.990;5.926;2023-02-28T15:30:52;1.38;;;0.88;;
47335;SDS011;33068;51.990;5.926;2023-02-28T15:35:50;1.38;;;0.93;;
47335;SDS011;33068;51.990;5.926;2023-02-28T15:38:18;2.92;;;1.00;;
47335;SDS011;33068;51.990;5.926;2023-02-28T15:40:50;1.48;;;0.88;;
47335;SDS011;33068;51.990;5.926;2023-02-28T15:43:25;1.40;;;0.98;;